sensor_id;sensor_type;location;lat;lon;timestamp;P1;durP1;ratioP1;P2;durP2;ratioP2
80567;SDS011;69922;45.656;25.586;2024-02-16T00:00:44;27.70;;;12.40;;
80567;SDS011;69922;45.656;25.586;2024-02-16T00:02:10;23.30;;;13.10;;
80567;SDS011;69922;45.656;25.586;2024-02-16T00:03:17;26.50;;;13.50;;
80567;SDS011;69922;45.656;25.586;2024-02-16T00:04:24;21.70;;;12.40;;
80567;SDS011;69922;45.656;25.586;2024-02-16T00:05:30;21.10;;;12.00;;
80567;SDS011;69922;45.656;25.586;2024-02-16T00:06:38;27.40;;;13.60;;
80567;SDS011;69922;45.656;25.586;2024-02-16T00:07:45;23.20;;;12.60;;
80567;SDS011;69922;45.656;25.586;2024-02-16T00:08:51;24.30;;;13.80;;
80567;SDS011;69922;45.656;25.586;2024-02-16T00:09:58;26.40;;;13.50;;
80567;SDS011;69922;45.656;25.586;2024-02-16T00:11:05;22.90;;;13.20;;
80567;SDS011;69922;45.656;25.586;2024-02-16T00:12:12;23.70;;;12.80;;
80567;SDS011;69922;45.656;25.586;2024-02-16T00:13:19;27.40;;;14.80;;
80567;SDS011;69922;45.656;25.586;2024-02-16T00:14:27;25.10;;;14.20;;
80567;SDS011;69922;45.656;25.586;2024-02-16T00:15:34;25.50;;;13.20;;
80567;SDS011;69922;45.656;25.586;2024-02-16T00:16:43;24.20;;;13.20;;
80567;SDS011;69922;45.656;25.586;2024-02-16T00:17:49;33.20;;;16.30;;
80567;SDS011;69922;45.656;25.586;2024-02-16T00:18:57;33.40;;;17.20;;
80567;SDS011;69922;45.656;25.586;2024-02-16T00:20:05;34.00;;;18.70;;
80567;SDS011;69922;45.656;25.586;2024-02-16T00:21:17;33.40;;;17.90;;
80567;SDS011;69922;45.656;25.586;2024-02-16T00:22:23;33.70;;;17.50;;
80567;SDS011;69922;45.656;25.586;2024-02-16T00:23:30;31.20;;;17.30;;
80567;SDS011;69922;45.656;25.586;2024-02-16T00:24:38;32.80;;;18.30;;
80567;SDS011;69922;45.656;25.586;2024-02-16T00:25:45;33.20;;;17.30;;
80567;SDS011;69922;45.656;25.586;2024-02-16T00:26:52;32.40;;;18.30;;
80567;SDS011;69922;45.656;25.586;2024-02-16T00:27:59;34.80;;;18.00;;
80567;SDS011;69922;45.656;25.586;2024-02-16T00:29:08;31.80;;;18.00;;
80567;SDS011;69922;45.656;25.586;2024-02-16T00:30:15;35.80;;;18.70;;
80567;SDS011;69922;45.656;25.586;2024-02-16T00:31:23;33.70;;;18.10;;
80567;SDS011;69922;45.656;25.586;2024-02-16T00:32:30;33.80;;;18.20;;
80567;SDS011;69922;45.656;25.586;2024-02-16T00:33:38;33.70;;;18.20;;
80567;SDS011;69922;45.656;25.586;2024-02-16T00:34:46;33.30;;;18.10;;
80567;SDS011;69922;45.656;25.586;2024-02-16T00:35:52;28.90;;;17.50;;
80567;SDS011;69922;45.656;25.586;2024-02-16T00:36:59;31.20;;;17.30;;
80567;SDS011;69922;45.656;25.586;2024-02-16T00:38:06;33.30;;;17.10;;
80567;SDS011;69922;45.656;25.586;2024-02-16T00:39:12;34.00;;;17.70;;
80567;SDS011;69922;45.656;25.586;2024-02-16T00:40:19;30.60;;;16.50;;
80567;SDS011;69922;45.656;25.586;2024-02-16T00:41:27;33.60;;;17.30;;
80567;SDS011;69922;45.656;25.586;2024-02-16T00:42:34;29.60;;;16.70;;
80567;SDS011;69922;45.656;25.586;2024-02-16T00:43:41;29.90;;;17.30;;
80567;SDS011;69922;45.656;25.586;2024-02-16T00:44:49;30.10;;;18.20;;
80567;SDS011;69922;45.656;25.586;2024-02-16T00:45:56;28.80;;;17.00;;
80567;SDS011;69922;45.656;25.586;2024-02-16T00:47:03;32.10;;;17.90;;
80567;SDS011;69922;45.656;25.586;2024-02-16T00:48:11;30.50;;;16.80;;
80567;SDS011;69922;45.656;25.586;2024-02-16T00:49:18;29.70;;;16.60;;
80567;SDS011;69922;45.656;25.586;2024-02-16T00:50:25;29.70;;;16.00;;
80567;SDS011;69922;45.656;25.586;2024-02-16T00:51:32;30.40;;;16.90;;
80567;SDS011;69922;45.656;25.586;2024-02-16T00:52:39;28.70;;;16.30;;
80567;SDS011;69922;45.656;25.586;2024-02-16T00:53:46;28.40;;;17.10;;
80567;SDS011;69922;45.656;25.586;2024-02-16T00:54:55;29.90;;;16.70;;
80567;SDS011;69922;45.656;25.586;2024-02-16T00:56:02;28.20;;;16.90;;
80567;SDS011;69922;45.656;25.586;2024-02-16T00:57:11;28.70;;;16.50;;
80567;SDS011;69922;45.656;25.586;2024-02-16T00:58:19;30.10;;;15.70;;
80567;SDS011;69922;45.656;25.586;2024-02-16T00:59:26;30.80;;;16.50;;
80567;SDS011;69922;45.656;25.586;2024-02-16T01:00:33;29.70;;;17.10;;
80567;SDS011;69922;45.656;25.586;2024-02-16T01:01:40;26.30;;;15.30;;
80567;SDS011;69922;45.656;25.586;2024-02-16T01:02:47;29.40;;;15.80;;
80567;SDS011;69922;45.656;25.586;2024-02-16T01:03:54;28.10;;;15.50;;
80567;SDS011;69922;45.656;25.586;2024-02-16T01:05:00;27.00;;;15.70;;
80567;SDS011;69922;45.656;25.586;2024-02-16T01:06:08;30.20;;;15.70;;
80567;SDS011;69922;45.656;25.586;2024-02-16T01:07:16;30.00;;;15.10;;
80567;SDS011;69922;45.656;25.586;2024-02-16T01:08:23;30.30;;;16.70;;
80567;SDS011;69922;45.656;25.586;2024-02-16T01:09:32;23.80;;;14.60;;
80567;SDS011;69922;45.656;25.586;2024-02-16T01:10:39;27.10;;;14.80;;
80567;SDS011;69922;45.656;25.586;2024-02-16T01:11:46;30.70;;;16.50;;
80567;SDS011;69922;45.656;25.586;2024-02-16T01:12:53;29.00;;;16.80;;
80567;SDS011;69922;45.656;25.586;2024-02-16T01:14:01;29.30;;;17.40;;
80567;SDS011;69922;45.656;25.586;2024-02-16T01:15:09;32.20;;;17.90;;
80567;SDS011;69922;45.656;25.586;2024-02-16T01:16:17;31.80;;;17.60;;
80567;SDS011;69922;45.656;25.586;2024-02-16T01:17:24;30.00;;;16.30;;
80567;SDS011;69922;45.656;25.586;2024-02-16T01:18:32;29.80;;;17.30;;
80567;SDS011;69922;45.656;25.586;2024-02-16T01:19:42;28.30;;;16.80;;
80567;SDS011;69922;45.656;25.586;2024-02-16T01:20:48;30.90;;;17.30;;
80567;SDS011;69922;45.656;25.586;2024-02-16T01:21:56;35.20;;;18.50;;
80567;SDS011;69922;45.656;25.586;2024-02-16T01:23:05;29.30;;;17.70;;
80567;SDS011;69922;45.656;25.586;2024-02-16T01:24:12;29.60;;;17.50;;
80567;SDS011;69922;45.656;25.586;2024-02-16T01:25:19;29.10;;;16.00;;
80567;SDS011;69922;45.656;25.586;2024-02-16T01:26:27;27.10;;;14.20;;
80567;SDS011;69922;45.656;25.586;2024-02-16T01:27:34;29.40;;;15.40;;
80567;SDS011;69922;45.656;25.586;2024-02-16T01:28:41;27.20;;;15.70;;
80567;SDS011;69922;45.656;25.586;2024-02-16T01:29:48;28.30;;;15.50;;
80567;SDS011;69922;45.656;25.586;2024-02-16T01:30:55;27.20;;;15.30;;
80567;SDS011;69922;45.656;25.586;2024-02-16T01:32:01;26.80;;;15.10;;
80567;SDS011;69922;45.656;25.586;2024-02-16T01:33:08;25.40;;;15.00;;
80567;SDS011;69922;45.656;25.586;2024-02-16T01:34:15;24.60;;;14.20;;
80567;SDS011;69922;45.656;25.586;2024-02-16T01:35:22;27.10;;;13.40;;
80567;SDS011;69922;45.656;25.586;2024-02-16T01:36:29;22.60;;;13.30;;
80567;SDS011;69922;45.656;25.586;2024-02-16T01:37:36;24.10;;;14.30;;
80567;SDS011;69922;45.656;25.586;2024-02-16T01:38:44;25.00;;;14.20;;
80567;SDS011;69922;45.656;25.586;2024-02-16T01:39:51;23.60;;;13.80;;
80567;SDS011;69922;45.656;25.586;2024-02-16T01:40:58;26.90;;;14.60;;
80567;SDS011;69922;45.656;25.586;2024-02-16T01:42:06;24.00;;;13.80;;
80567;SDS011;69922;45.656;25.586;2024-02-16T01:43:13;26.70;;;14.60;;
80567;SDS011;69922;45.656;25.586;2024-02-16T01:44:25;23.20;;;14.60;;
80567;SDS011;69922;45.656;25.586;2024-02-16T01:45:33;26.80;;;15.40;;
80567;SDS011;69922;45.656;25.586;2024-02-16T01:46:40;25.60;;;14.80;;
80567;SDS011;69922;45.656;25.586;2024-02-16T01:47:47;24.60;;;14.70;;
80567;SDS011;69922;45.656;25.586;2024-02-16T01:48:56;23.00;;;13.60;;
80567;SDS011;69922;45.656;25.586;2024-02-16T01:50:05;25.40;;;15.40;;
80567;SDS011;69922;45.656;25.586;2024-02-16T01:51:13;28.80;;;15.00;;
80567;SDS011;69922;45.656;25.586;2024-02-16T01:52:20;25.70;;;13.80;;
80567;SDS011;69922;45.656;25.586;2024-02-16T01:53:27;25.70;;;13.50;;
80567;SDS011;69922;45.656;25.586;2024-02-16T01:54:35;24.80;;;14.10;;
80567;SDS011;69922;45.656;25.586;2024-02-16T01:55:42;26.10;;;13.60;;
80567;SDS011;69922;45.656;25.586;2024-02-16T01:56:50;25.20;;;14.80;;
80567;SDS011;69922;45.656;25.586;2024-02-16T01:57:57;30.90;;;17.00;;
80567;SDS011;69922;45.656;25.586;2024-02-16T01:59:05;31.50;;;17.80;;
80567;SDS011;69922;45.656;25.586;2024-02-16T02:00:13;32.20;;;18.30;;
80567;SDS011;69922;45.656;25.586;2024-02-16T02:01:22;33.70;;;20.10;;
80567;SDS011;69922;45.656;25.586;2024-02-16T02:02:30;36.60;;;19.70;;
80567;SDS011;69922;45.656;25.586;2024-02-16T02:03:37;34.40;;;18.20;;
80567;SDS011;69922;45.656;25.586;2024-02-16T02:04:44;35.10;;;18.80;;
80567;SDS011;69922;45.656;25.586;2024-02-16T02:05:51;33.40;;;18.40;;
80567;SDS011;69922;45.656;25.586;2024-02-16T02:07:01;33.00;;;18.70;;
80567;SDS011;69922;45.656;25.586;2024-02-16T02:08:18;34.00;;;18.80;;
80567;SDS011;69922;45.656;25.586;2024-02-16T02:09:24;36.50;;;18.60;;
80567;SDS011;69922;45.656;25.586;2024-02-16T02:10:32;32.20;;;17.90;;
80567;SDS011;69922;45.656;25.586;2024-02-16T02:11:38;35.40;;;19.20;;
80567;SDS011;69922;45.656;25.586;2024-02-16T02:12:45;33.00;;;19.10;;
80567;SDS011;69922;45.656;25.586;2024-02-16T02:13:52;32.90;;;18.90;;
80567;SDS011;69922;45.656;25.586;2024-02-16T02:14:59;34.10;;;18.30;;
80567;SDS011;69922;45.656;25.586;2024-02-16T02:16:08;35.30;;;18.10;;
80567;SDS011;69922;45.656;25.586;2024-02-16T02:17:17;33.50;;;19.90;;
80567;SDS011;69922;45.656;25.586;2024-02-16T02:18:24;34.30;;;19.50;;
80567;SDS011;69922;45.656;25.586;2024-02-16T02:19:32;34.90;;;20.50;;
80567;SDS011;69922;45.656;25.586;2024-02-16T02:20:40;34.00;;;18.30;;
80567;SDS011;69922;45.656;25.586;2024-02-16T02:21:47;32.40;;;17.70;;
80567;SDS011;69922;45.656;25.586;2024-02-16T02:22:54;33.40;;;17.30;;
80567;SDS011;69922;45.656;25.586;2024-02-16T02:24:02;33.70;;;17.20;;
80567;SDS011;69922;45.656;25.586;2024-02-16T02:25:09;29.40;;;15.40;;
80567;SDS011;69922;45.656;25.586;2024-02-16T02:26:17;30.80;;;16.90;;
80567;SDS011;69922;45.656;25.586;2024-02-16T02:27:25;31.70;;;17.20;;
80567;SDS011;69922;45.656;25.586;2024-02-16T02:28:32;32.10;;;18.00;;
80567;SDS011;69922;45.656;25.586;2024-02-16T02:29:39;30.80;;;16.60;;
80567;SDS011;69922;45.656;25.586;2024-02-16T02:30:46;30.30;;;17.10;;
80567;SDS011;69922;45.656;25.586;2024-02-16T02:31:53;29.90;;;17.50;;
80567;SDS011;69922;45.656;25.586;2024-02-16T02:33:00;28.60;;;17.00;;
80567;SDS011;69922;45.656;25.586;2024-02-16T02:34:07;30.00;;;16.20;;
80567;SDS011;69922;45.656;25.586;2024-02-16T02:35:17;24.80;;;15.30;;
80567;SDS011;69922;45.656;25.586;2024-02-16T02:36:25;28.70;;;16.60;;
80567;SDS011;69922;45.656;25.586;2024-02-16T02:37:32;32.60;;;17.80;;
80567;SDS011;69922;45.656;25.586;2024-02-16T02:38:38;33.10;;;18.20;;
80567;SDS011;69922;45.656;25.586;2024-02-16T02:39:45;32.40;;;17.70;;
80567;SDS011;69922;45.656;25.586;2024-02-16T02:40:52;33.50;;;18.30;;
80567;SDS011;69922;45.656;25.586;2024-02-16T02:41:59;31.50;;;17.90;;
80567;SDS011;69922;45.656;25.586;2024-02-16T02:43:07;32.30;;;17.40;;
80567;SDS011;69922;45.656;25.586;2024-02-16T02:44:14;30.70;;;16.70;;
80567;SDS011;69922;45.656;25.586;2024-02-16T02:45:21;32.40;;;17.10;;
80567;SDS011;69922;45.656;25.586;2024-02-16T02:46:28;32.80;;;17.40;;
80567;SDS011;69922;45.656;25.586;2024-02-16T02:47:35;34.70;;;17.70;;
80567;SDS011;69922;45.656;25.586;2024-02-16T02:48:43;33.90;;;17.70;;
80567;SDS011;69922;45.656;25.586;2024-02-16T02:49:56;37.30;;;17.10;;
80567;SDS011;69922;45.656;25.586;2024-02-16T02:51:04;32.10;;;18.30;;
80567;SDS011;69922;45.656;25.586;2024-02-16T02:52:11;32.20;;;17.50;;
80567;SDS011;69922;45.656;25.586;2024-02-16T02:53:18;31.90;;;17.30;;
80567;SDS011;69922;45.656;25.586;2024-02-16T02:54:25;34.20;;;17.50;;
80567;SDS011;69922;45.656;25.586;2024-02-16T02:55:31;33.90;;;17.40;;
80567;SDS011;69922;45.656;25.586;2024-02-16T02:56:40;33.40;;;18.80;;
80567;SDS011;69922;45.656;25.586;2024-02-16T02:57:47;28.30;;;16.80;;
80567;SDS011;69922;45.656;25.586;2024-02-16T02:58:54;31.10;;;16.50;;
80567;SDS011;69922;45.656;25.586;2024-02-16T03:00:05;33.40;;;16.80;;
80567;SDS011;69922;45.656;25.586;2024-02-16T03:01:17;29.50;;;16.50;;
80567;SDS011;69922;45.656;25.586;2024-02-16T03:02:25;32.50;;;17.80;;
80567;SDS011;69922;45.656;25.586;2024-02-16T03:03:31;30.90;;;18.50;;
80567;SDS011;69922;45.656;25.586;2024-02-16T03:04:38;28.80;;;16.00;;
80567;SDS011;69922;45.656;25.586;2024-02-16T03:05:45;31.30;;;18.50;;
80567;SDS011;69922;45.656;25.586;2024-02-16T03:06:53;25.70;;;15.50;;
80567;SDS011;69922;45.656;25.586;2024-02-16T03:08:01;30.30;;;16.40;;
80567;SDS011;69922;45.656;25.586;2024-02-16T03:09:10;26.20;;;15.50;;
80567;SDS011;69922;45.656;25.586;2024-02-16T03:10:17;29.50;;;16.40;;
80567;SDS011;69922;45.656;25.586;2024-02-16T03:11:26;27.70;;;15.70;;
80567;SDS011;69922;45.656;25.586;2024-02-16T03:12:33;25.80;;;14.80;;
80567;SDS011;69922;45.656;25.586;2024-02-16T03:13:40;31.10;;;15.30;;
80567;SDS011;69922;45.656;25.586;2024-02-16T03:14:47;23.10;;;13.70;;
80567;SDS011;69922;45.656;25.586;2024-02-16T03:15:54;27.50;;;14.70;;
80567;SDS011;69922;45.656;25.586;2024-02-16T03:17:01;27.00;;;15.20;;
80567;SDS011;69922;45.656;25.586;2024-02-16T03:18:08;24.80;;;12.90;;
80567;SDS011;69922;45.656;25.586;2024-02-16T03:19:16;24.60;;;14.00;;
80567;SDS011;69922;45.656;25.586;2024-02-16T03:20:24;22.70;;;13.40;;
80567;SDS011;69922;45.656;25.586;2024-02-16T03:21:31;26.90;;;13.80;;
80567;SDS011;69922;45.656;25.586;2024-02-16T03:22:39;20.60;;;12.20;;
80567;SDS011;69922;45.656;25.586;2024-02-16T03:23:46;23.50;;;12.40;;
80567;SDS011;69922;45.656;25.586;2024-02-16T03:24:54;23.80;;;14.10;;
80567;SDS011;69922;45.656;25.586;2024-02-16T03:26:01;26.40;;;14.90;;
80567;SDS011;69922;45.656;25.586;2024-02-16T03:27:09;23.90;;;13.40;;
80567;SDS011;69922;45.656;25.586;2024-02-16T03:28:16;24.40;;;13.20;;
80567;SDS011;69922;45.656;25.586;2024-02-16T03:29:24;26.40;;;14.40;;
80567;SDS011;69922;45.656;25.586;2024-02-16T03:30:30;29.30;;;15.90;;
80567;SDS011;69922;45.656;25.586;2024-02-16T03:31:39;29.20;;;14.90;;
80567;SDS011;69922;45.656;25.586;2024-02-16T03:32:49;32.00;;;16.40;;
80567;SDS011;69922;45.656;25.586;2024-02-16T03:33:57;30.90;;;17.50;;
80567;SDS011;69922;45.656;25.586;2024-02-16T03:35:05;32.50;;;18.30;;
80567;SDS011;69922;45.656;25.586;2024-02-16T03:36:13;34.40;;;19.00;;
80567;SDS011;69922;45.656;25.586;2024-02-16T03:37:20;32.40;;;15.80;;
80567;SDS011;69922;45.656;25.586;2024-02-16T03:38:27;30.60;;;16.70;;
80567;SDS011;69922;45.656;25.586;2024-02-16T03:39:33;32.70;;;17.60;;
80567;SDS011;69922;45.656;25.586;2024-02-16T03:40:40;34.90;;;17.60;;
80567;SDS011;69922;45.656;25.586;2024-02-16T03:41:47;34.70;;;19.30;;
80567;SDS011;69922;45.656;25.586;2024-02-16T03:42:55;37.20;;;18.90;;
80567;SDS011;69922;45.656;25.586;2024-02-16T03:44:01;29.40;;;15.40;;
80567;SDS011;69922;45.656;25.586;2024-02-16T03:45:10;35.70;;;16.70;;
80567;SDS011;69922;45.656;25.586;2024-02-16T03:46:17;29.40;;;16.00;;
80567;SDS011;69922;45.656;25.586;2024-02-16T03:47:24;27.30;;;16.10;;
80567;SDS011;69922;45.656;25.586;2024-02-16T03:48:30;34.10;;;18.30;;
80567;SDS011;69922;45.656;25.586;2024-02-16T03:49:38;30.00;;;18.10;;
80567;SDS011;69922;45.656;25.586;2024-02-16T03:50:47;33.10;;;18.00;;
80567;SDS011;69922;45.656;25.586;2024-02-16T03:51:54;34.20;;;18.10;;
80567;SDS011;69922;45.656;25.586;2024-02-16T03:53:01;35.30;;;18.00;;
80567;SDS011;69922;45.656;25.586;2024-02-16T03:54:09;35.70;;;17.80;;
80567;SDS011;69922;45.656;25.586;2024-02-16T03:55:16;45.80;;;21.10;;
80567;SDS011;69922;45.656;25.586;2024-02-16T03:56:25;42.60;;;19.60;;
80567;SDS011;69922;45.656;25.586;2024-02-16T03:57:32;34.40;;;17.90;;
80567;SDS011;69922;45.656;25.586;2024-02-16T03:58:39;37.40;;;18.10;;
80567;SDS011;69922;45.656;25.586;2024-02-16T03:59:45;30.80;;;15.90;;
80567;SDS011;69922;45.656;25.586;2024-02-16T04:00:52;30.90;;;15.70;;
80567;SDS011;69922;45.656;25.586;2024-02-16T04:01:59;31.90;;;16.20;;
80567;SDS011;69922;45.656;25.586;2024-02-16T04:03:06;32.00;;;16.70;;
80567;SDS011;69922;45.656;25.586;2024-02-16T04:04:15;33.80;;;17.30;;
80567;SDS011;69922;45.656;25.586;2024-02-16T04:05:23;33.00;;;17.40;;
80567;SDS011;69922;45.656;25.586;2024-02-16T04:06:35;32.30;;;17.30;;
80567;SDS011;69922;45.656;25.586;2024-02-16T04:07:42;29.70;;;15.50;;
80567;SDS011;69922;45.656;25.586;2024-02-16T04:08:49;32.30;;;17.80;;
80567;SDS011;69922;45.656;25.586;2024-02-16T04:09:56;38.10;;;18.20;;
80567;SDS011;69922;45.656;25.586;2024-02-16T04:11:03;35.70;;;17.20;;
80567;SDS011;69922;45.656;25.586;2024-02-16T04:12:10;33.30;;;17.50;;
80567;SDS011;69922;45.656;25.586;2024-02-16T04:13:18;31.20;;;17.40;;
80567;SDS011;69922;45.656;25.586;2024-02-16T04:14:25;35.80;;;17.10;;
80567;SDS011;69922;45.656;25.586;2024-02-16T04:15:32;32.80;;;16.90;;
80567;SDS011;69922;45.656;25.586;2024-02-16T04:16:40;32.60;;;17.60;;
80567;SDS011;69922;45.656;25.586;2024-02-16T04:17:49;37.40;;;17.90;;
80567;SDS011;69922;45.656;25.586;2024-02-16T04:18:56;32.50;;;17.30;;
80567;SDS011;69922;45.656;25.586;2024-02-16T04:20:03;30.00;;;16.60;;
80567;SDS011;69922;45.656;25.586;2024-02-16T04:21:11;35.00;;;17.00;;
80567;SDS011;69922;45.656;25.586;2024-02-16T04:22:18;30.80;;;16.40;;
80567;SDS011;69922;45.656;25.586;2024-02-16T04:23:24;36.10;;;16.60;;
80567;SDS011;69922;45.656;25.586;2024-02-16T04:24:31;36.60;;;17.50;;
80567;SDS011;69922;45.656;25.586;2024-02-16T04:25:37;35.20;;;17.90;;
80567;SDS011;69922;45.656;25.586;2024-02-16T04:26:44;37.50;;;18.30;;
80567;SDS011;69922;45.656;25.586;2024-02-16T04:27:52;36.30;;;17.70;;
80567;SDS011;69922;45.656;25.586;2024-02-16T04:29:00;36.60;;;17.60;;
80567;SDS011;69922;45.656;25.586;2024-02-16T04:30:10;31.90;;;17.10;;
80567;SDS011;69922;45.656;25.586;2024-02-16T04:31:17;37.30;;;19.00;;
80567;SDS011;69922;45.656;25.586;2024-02-16T04:32:24;33.10;;;17.60;;
80567;SDS011;69922;45.656;25.586;2024-02-16T04:33:30;32.30;;;17.00;;
80567;SDS011;69922;45.656;25.586;2024-02-16T04:34:38;31.40;;;17.50;;
80567;SDS011;69922;45.656;25.586;2024-02-16T04:35:44;35.70;;;17.50;;
80567;SDS011;69922;45.656;25.586;2024-02-16T04:36:52;32.50;;;17.30;;
80567;SDS011;69922;45.656;25.586;2024-02-16T04:37:59;31.70;;;16.80;;
80567;SDS011;69922;45.656;25.586;2024-02-16T04:39:06;32.20;;;16.10;;
80567;SDS011;69922;45.656;25.586;2024-02-16T04:40:15;34.60;;;19.20;;
80567;SDS011;69922;45.656;25.586;2024-02-16T04:41:22;33.50;;;17.90;;
80567;SDS011;69922;45.656;25.586;2024-02-16T04:42:29;32.00;;;17.50;;
80567;SDS011;69922;45.656;25.586;2024-02-16T04:43:35;29.10;;;16.40;;
80567;SDS011;69922;45.656;25.586;2024-02-16T04:44:43;31.50;;;17.30;;
80567;SDS011;69922;45.656;25.586;2024-02-16T04:45:51;30.30;;;17.30;;
80567;SDS011;69922;45.656;25.586;2024-02-16T04:46:59;36.30;;;17.50;;
80567;SDS011;69922;45.656;25.586;2024-02-16T04:48:06;31.80;;;17.80;;
80567;SDS011;69922;45.656;25.586;2024-02-16T04:49:14;30.20;;;18.30;;
80567;SDS011;69922;45.656;25.586;2024-02-16T04:50:23;34.30;;;18.80;;
80567;SDS011;69922;45.656;25.586;2024-02-16T04:51:31;32.70;;;17.50;;
80567;SDS011;69922;45.656;25.586;2024-02-16T04:52:38;37.10;;;18.60;;
80567;SDS011;69922;45.656;25.586;2024-02-16T04:53:45;32.60;;;18.90;;
80567;SDS011;69922;45.656;25.586;2024-02-16T04:54:53;35.00;;;19.20;;
80567;SDS011;69922;45.656;25.586;2024-02-16T04:56:00;34.40;;;18.80;;
80567;SDS011;69922;45.656;25.586;2024-02-16T04:57:06;37.10;;;18.60;;
80567;SDS011;69922;45.656;25.586;2024-02-16T04:58:13;36.70;;;17.60;;
80567;SDS011;69922;45.656;25.586;2024-02-16T04:59:20;38.20;;;18.80;;
80567;SDS011;69922;45.656;25.586;2024-02-16T05:00:27;34.30;;;19.20;;
80567;SDS011;69922;45.656;25.586;2024-02-16T05:01:34;33.50;;;19.20;;
80567;SDS011;69922;45.656;25.586;2024-02-16T05:02:42;33.40;;;17.10;;
80567;SDS011;69922;45.656;25.586;2024-02-16T05:03:50;35.80;;;19.00;;
80567;SDS011;69922;45.656;25.586;2024-02-16T05:04:57;37.30;;;19.80;;
80567;SDS011;69922;45.656;25.586;2024-02-16T05:06:07;37.90;;;19.50;;
80567;SDS011;69922;45.656;25.586;2024-02-16T05:07:15;39.00;;;21.00;;
80567;SDS011;69922;45.656;25.586;2024-02-16T05:08:23;37.40;;;19.40;;
80567;SDS011;69922;45.656;25.586;2024-02-16T05:09:31;39.10;;;20.90;;
80567;SDS011;69922;45.656;25.586;2024-02-16T05:10:40;47.40;;;22.90;;
80567;SDS011;69922;45.656;25.586;2024-02-16T05:11:47;49.00;;;22.50;;
80567;SDS011;69922;45.656;25.586;2024-02-16T05:12:55;51.30;;;23.30;;
80567;SDS011;69922;45.656;25.586;2024-02-16T05:14:04;48.80;;;22.90;;
80567;SDS011;69922;45.656;25.586;2024-02-16T05:15:11;47.20;;;22.90;;
80567;SDS011;69922;45.656;25.586;2024-02-16T05:16:17;50.00;;;25.20;;
80567;SDS011;69922;45.656;25.586;2024-02-16T05:17:25;42.80;;;22.70;;
80567;SDS011;69922;45.656;25.586;2024-02-16T05:18:33;49.70;;;22.70;;
80567;SDS011;69922;45.656;25.586;2024-02-16T05:19:40;47.40;;;23.70;;
80567;SDS011;69922;45.656;25.586;2024-02-16T05:20:47;48.20;;;22.50;;
80567;SDS011;69922;45.656;25.586;2024-02-16T05:21:55;46.00;;;22.50;;
80567;SDS011;69922;45.656;25.586;2024-02-16T05:23:01;40.60;;;21.30;;
80567;SDS011;69922;45.656;25.586;2024-02-16T05:24:08;47.50;;;23.10;;
80567;SDS011;69922;45.656;25.586;2024-02-16T05:25:16;50.60;;;26.10;;
80567;SDS011;69922;45.656;25.586;2024-02-16T05:26:24;50.80;;;27.50;;
80567;SDS011;69922;45.656;25.586;2024-02-16T05:27:31;60.50;;;27.80;;
80567;SDS011;69922;45.656;25.586;2024-02-16T05:29:45;49.80;;;25.60;;
80567;SDS011;69922;45.656;25.586;2024-02-16T05:30:52;51.60;;;24.10;;
80567;SDS011;69922;45.656;25.586;2024-02-16T05:32:01;44.70;;;22.30;;
80567;SDS011;69922;45.656;25.586;2024-02-16T05:33:08;51.10;;;24.70;;
80567;SDS011;69922;45.656;25.586;2024-02-16T05:34:15;47.60;;;25.90;;
80567;SDS011;69922;45.656;25.586;2024-02-16T05:35:22;43.80;;;23.20;;
80567;SDS011;69922;45.656;25.586;2024-02-16T05:36:32;46.00;;;23.30;;
80567;SDS011;69922;45.656;25.586;2024-02-16T05:37:43;36.50;;;20.60;;
80567;SDS011;69922;45.656;25.586;2024-02-16T05:38:56;38.70;;;20.30;;
80567;SDS011;69922;45.656;25.586;2024-02-16T05:40:14;38.70;;;20.20;;
80567;SDS011;69922;45.656;25.586;2024-02-16T05:41:28;36.60;;;19.30;;
80567;SDS011;69922;45.656;25.586;2024-02-16T05:42:36;38.80;;;21.40;;
80567;SDS011;69922;45.656;25.586;2024-02-16T05:43:44;39.40;;;21.20;;
80567;SDS011;69922;45.656;25.586;2024-02-16T05:44:51;40.50;;;21.90;;
80567;SDS011;69922;45.656;25.586;2024-02-16T05:45:58;39.70;;;22.20;;
80567;SDS011;69922;45.656;25.586;2024-02-16T05:47:08;36.80;;;19.80;;
80567;SDS011;69922;45.656;25.586;2024-02-16T05:48:15;40.30;;;20.90;;
80567;SDS011;69922;45.656;25.586;2024-02-16T05:49:22;40.40;;;22.80;;
80567;SDS011;69922;45.656;25.586;2024-02-16T05:50:29;45.20;;;22.50;;
80567;SDS011;69922;45.656;25.586;2024-02-16T05:51:36;41.80;;;23.10;;
80567;SDS011;69922;45.656;25.586;2024-02-16T05:52:46;43.10;;;21.30;;
80567;SDS011;69922;45.656;25.586;2024-02-16T05:53:54;36.20;;;21.20;;
80567;SDS011;69922;45.656;25.586;2024-02-16T05:55:03;38.60;;;20.40;;
80567;SDS011;69922;45.656;25.586;2024-02-16T05:56:11;37.40;;;20.60;;
80567;SDS011;69922;45.656;25.586;2024-02-16T05:57:18;36.90;;;20.80;;
80567;SDS011;69922;45.656;25.586;2024-02-16T05:58:24;30.90;;;19.10;;
80567;SDS011;69922;45.656;25.586;2024-02-16T05:59:32;34.40;;;20.50;;
80567;SDS011;69922;45.656;25.586;2024-02-16T06:00:40;40.10;;;23.10;;
80567;SDS011;69922;45.656;25.586;2024-02-16T06:01:47;31.40;;;20.00;;
80567;SDS011;69922;45.656;25.586;2024-02-16T06:02:54;31.60;;;20.60;;
80567;SDS011;69922;45.656;25.586;2024-02-16T06:04:01;34.40;;;22.30;;
80567;SDS011;69922;45.656;25.586;2024-02-16T06:05:08;32.30;;;20.40;;
80567;SDS011;69922;45.656;25.586;2024-02-16T06:06:15;34.00;;;20.60;;
80567;SDS011;69922;45.656;25.586;2024-02-16T06:07:23;32.00;;;20.80;;
80567;SDS011;69922;45.656;25.586;2024-02-16T06:08:31;27.70;;;15.80;;
80567;SDS011;69922;45.656;25.586;2024-02-16T06:09:38;29.80;;;18.10;;
80567;SDS011;69922;45.656;25.586;2024-02-16T06:10:45;35.80;;;20.60;;
80567;SDS011;69922;45.656;25.586;2024-02-16T06:11:59;31.90;;;20.10;;
80567;SDS011;69922;45.656;25.586;2024-02-16T06:13:12;37.50;;;22.10;;
80567;SDS011;69922;45.656;25.586;2024-02-16T06:14:19;30.70;;;19.40;;
80567;SDS011;69922;45.656;25.586;2024-02-16T06:15:27;32.20;;;21.00;;
80567;SDS011;69922;45.656;25.586;2024-02-16T06:16:34;39.10;;;22.80;;
80567;SDS011;69922;45.656;25.586;2024-02-16T06:17:41;32.00;;;20.30;;
80567;SDS011;69922;45.656;25.586;2024-02-16T06:18:48;28.60;;;18.90;;
80567;SDS011;69922;45.656;25.586;2024-02-16T06:19:55;30.70;;;18.80;;
80567;SDS011;69922;45.656;25.586;2024-02-16T06:21:03;31.40;;;19.10;;
80567;SDS011;69922;45.656;25.586;2024-02-16T06:22:10;34.50;;;21.60;;
80567;SDS011;69922;45.656;25.586;2024-02-16T06:23:17;32.20;;;22.60;;
80567;SDS011;69922;45.656;25.586;2024-02-16T06:24:25;29.20;;;20.40;;
80567;SDS011;69922;45.656;25.586;2024-02-16T06:25:32;35.70;;;20.20;;
80567;SDS011;69922;45.656;25.586;2024-02-16T06:26:39;28.90;;;20.40;;
80567;SDS011;69922;45.656;25.586;2024-02-16T06:27:48;33.10;;;19.20;;
80567;SDS011;69922;45.656;25.586;2024-02-16T06:28:55;33.50;;;19.30;;
80567;SDS011;69922;45.656;25.586;2024-02-16T06:30:03;36.50;;;21.00;;
80567;SDS011;69922;45.656;25.586;2024-02-16T06:31:17;53.80;;;27.00;;